Flight Number: EUR2348 Duration: 1:10
Departure: Krakow Balice (EPKK) at 21:30 Distance: 330 Nm
Arrival: Munich Int'l (EDDM) at 22:40 Equipment: CRJ700

Weather Information
Krakow, Poland (EPKK) 50-05N 019-48E 237M Feb 24, 2018 - 01:00 AM EST / 2018.02.24 0600 UTC
Wind: from the SW (230 degrees) at 7 MPH (6 KT):0
Visibility: 3 mile(s):0
Sky conditions: overcast Temperature: 17 F (-8 C)
Windchill: 6 F (-14 C):1 Dew Point: 14 F (-10 C) Relative Humidity: 85% Pressure (altimeter): 30.15 in. Hg (1021 hPa)
ob: EPKK 240600Z 23006KT 6000 BKN035 OVC051 M08/M10 Q1021 cycle: 6
Sunrise: 05:36 Sunset: 16:11 (UTC)

Munchen, Germany (EDDM) 48-21N 011-47E Feb 24, 2018 - 12:50 AM EST / 2018.02.24 0550 UTC
Wind: from the ENE (070 degrees) at 12 MPH (10 KT):0
Visibility: greater than 7 mile(s):0
Sky conditions: partly cloudy Temperature: 23 F (-5 C)
Windchill: 12 F (-11 C):1 Dew Point: 17 F (-8 C) Relative Humidity: 79% Pressure (altimeter): 30.03 in. Hg (1017 hPa)
ob: EDDM 240550Z 07010KT 9999 SCT018 M05/M08 Q1017 NOSIG cycle: 6
Sunrise: 06:06 Sunset: 16:45 (UTC)

TAF:2018/02/24 06:27 TAF EDDM 240500Z 2406/2512 07012KT 9999 SCT020 BECMG 2407/2409 07015G25KT BECMG 2418/2420 07012KT

Previous Pireps for this route
Date Aircraft Flight time Fuel used Landing rate On time
2015-02-27CRJ70001.146164-163Yes
2015-04-05CRJ70001.176513-121Yes
2016-11-13CRJ7001.1234120Yes
(pireps marked green are flown by you)

Route map